sensor_id;sensor_type;location;lat;lon;timestamp;pressure;altitude;pressure_sealevel;temperature;humidity
49377;BME280;35253;34.688;33.040;2023-05-01T00:00:50;100989.44;;;15.55;100.00
49377;BME280;35253;34.688;33.040;2023-05-01T00:03:17;100985.47;;;15.48;100.00
49377;BME280;35253;34.688;33.040;2023-05-01T00:05:44;100982.94;;;15.34;100.00
49377;BME280;35253;34.688;33.040;2023-05-01T00:08:11;100978.09;;;15.39;100.00
49377;BME280;35253;34.688;33.040;2023-05-01T00:10:37;100986.31;;;15.25;100.00
49377;BME280;35253;34.688;33.040;2023-05-01T00:13:04;100991.69;;;15.25;100.00
49377;BME280;35253;34.688;33.040;2023-05-01T00:15:30;100993.41;;;15.26;100.00
49377;BME280;35253;34.688;33.040;2023-05-01T00:17:56;100994.88;;;15.30;100.00
49377;BME280;35253;34.688;33.040;2023-05-01T00:20:27;100990.13;;;15.33;100.00
49377;BME280;35253;34.688;33.040;2023-05-01T00:22:53;100991.69;;;15.25;100.00
49377;BME280;35253;34.688;33.040;2023-05-01T00:25:19;100994.75;;;15.31;100.00
49377;BME280;35253;34.688;33.040;2023-05-01T00:27:45;101003.69;;;15.32;100.00
49377;BME280;35253;34.688;33.040;2023-05-01T00:30:11;101009.47;;;15.39;100.00
49377;BME280;35253;34.688;33.040;2023-05-01T00:32:37;101003.47;;;15.35;100.00
49377;BME280;35253;34.688;33.040;2023-05-01T00:35:03;101006.34;;;15.32;100.00
49377;BME280;35253;34.688;33.040;2023-05-01T00:37:29;101009.56;;;15.37;100.00
49377;BME280;35253;34.688;33.040;2023-05-01T00:39:55;101012.22;;;15.50;100.00
49377;BME280;35253;34.688;33.040;2023-05-01T00:42:21;101022.03;;;15.38;100.00
49377;BME280;35253;34.688;33.040;2023-05-01T00:44:47;101014.75;;;15.27;100.00
49377;BME280;35253;34.688;33.040;2023-05-01T00:47:13;100998.78;;;15.26;100.00
49377;BME280;35253;34.688;33.040;2023-05-01T00:49:41;100997.47;;;14.95;100.00
49377;BME280;35253;34.688;33.040;2023-05-01T00:52:07;100995.88;;;14.67;100.00
49377;BME280;35253;34.688;33.040;2023-05-01T00:54:35;101001.88;;;14.96;100.00
49377;BME280;35253;34.688;33.040;2023-05-01T00:57:01;100990.00;;;15.11;100.00
49377;BME280;35253;34.688;33.040;2023-05-01T00:59:27;100986.97;;;15.16;100.00
49377;BME280;35253;34.688;33.040;2023-05-01T01:01:53;100996.97;;;15.14;100.00
49377;BME280;35253;34.688;33.040;2023-05-01T01:04:20;100997.44;;;15.08;100.00
49377;BME280;35253;34.688;33.040;2023-05-01T01:09:47;100992.13;;;15.19;100.00
49377;BME280;35253;34.688;33.040;2023-05-01T01:12:21;100996.22;;;15.12;100.00
49377;BME280;35253;34.688;33.040;2023-05-01T01:14:57;100993.78;;;15.09;100.00
49377;BME280;35253;34.688;33.040;2023-05-01T01:17:34;100993.00;;;15.07;100.00
49377;BME280;35253;34.688;33.040;2023-05-01T01:20:10;100990.03;;;14.99;100.00
49377;BME280;35253;34.688;33.040;2023-05-01T01:22:44;100986.97;;;15.16;100.00
49377;BME280;35253;34.688;33.040;2023-05-01T01:28:15;100988.47;;;15.20;100.00
49377;BME280;35253;34.688;33.040;2023-05-01T01:31:04;100994.06;;;15.17;100.00
49377;BME280;35253;34.688;33.040;2023-05-01T01:36:19;101002.13;;;15.17;100.00
49377;BME280;35253;34.688;33.040;2023-05-01T01:38:57;100997.91;;;15.25;100.00
49377;BME280;35253;34.688;33.040;2023-05-01T01:41:34;100994.16;;;15.15;100.00
49377;BME280;35253;34.688;33.040;2023-05-01T01:47:11;100999.88;;;15.11;100.00
49377;BME280;35253;34.688;33.040;2023-05-01T01:49:43;101001.84;;;15.09;100.00
49377;BME280;35253;34.688;33.040;2023-05-01T01:52:12;101008.06;;;15.09;100.00
49377;BME280;35253;34.688;33.040;2023-05-01T01:54:42;101013.63;;;15.06;100.00
49377;BME280;35253;34.688;33.040;2023-05-01T01:57:12;101008.06;;;14.97;100.00
49377;BME280;35253;34.688;33.040;2023-05-01T01:59:41;101013.44;;;14.97;100.00
49377;BME280;35253;34.688;33.040;2023-05-01T02:02:08;101012.22;;;14.64;100.00
49377;BME280;35253;34.688;33.040;2023-05-01T02:04:35;101015.94;;;14.74;100.00
49377;BME280;35253;34.688;33.040;2023-05-01T02:07:02;101017.34;;;14.67;100.00
49377;BME280;35253;34.688;33.040;2023-05-01T02:09:29;101018.84;;;14.71;100.00
49377;BME280;35253;34.688;33.040;2023-05-01T02:11:56;101021.94;;;14.91;100.00
49377;BME280;35253;34.688;33.040;2023-05-01T02:14:25;101029.25;;;14.88;100.00
49377;BME280;35253;34.688;33.040;2023-05-01T02:16:51;101019.69;;;14.84;100.00
49377;BME280;35253;34.688;33.040;2023-05-01T02:19:19;101026.56;;;14.88;100.00
49377;BME280;35253;34.688;33.040;2023-05-01T02:21:46;101018.84;;;14.84;100.00
49377;BME280;35253;34.688;33.040;2023-05-01T02:24:13;101018.06;;;14.95;100.00
49377;BME280;35253;34.688;33.040;2023-05-01T02:26:48;101015.41;;;14.95;100.00
49377;BME280;35253;34.688;33.040;2023-05-01T02:29:14;101016.59;;;14.91;100.00
49377;BME280;35253;34.688;33.040;2023-05-01T02:31:40;101010.69;;;14.85;100.00
49377;BME280;35253;34.688;33.040;2023-05-01T02:34:06;101016.31;;;15.06;100.00
49377;BME280;35253;34.688;33.040;2023-05-01T02:36:32;101017.97;;;14.96;100.00
49377;BME280;35253;34.688;33.040;2023-05-01T02:38:59;101022.88;;;15.02;100.00
49377;BME280;35253;34.688;33.040;2023-05-01T02:41:25;101017.75;;;14.99;100.00
49377;BME280;35253;34.688;33.040;2023-05-01T02:43:59;101023.00;;;14.88;100.00
49377;BME280;35253;34.688;33.040;2023-05-01T02:46:27;101023.00;;;14.88;100.00
49377;BME280;35253;34.688;33.040;2023-05-01T02:48:55;101025.28;;;14.81;100.00
49377;BME280;35253;34.688;33.040;2023-05-01T02:51:22;101029.22;;;15.01;100.00
49377;BME280;35253;34.688;33.040;2023-05-01T02:53:49;101032.56;;;15.05;100.00
49377;BME280;35253;34.688;33.040;2023-05-01T02:56:15;101033.53;;;15.04;100.00
49377;BME280;35253;34.688;33.040;2023-05-01T02:58:41;101029.88;;;15.05;100.00
49377;BME280;35253;34.688;33.040;2023-05-01T03:01:07;101021.94;;;15.03;100.00
49377;BME280;35253;34.688;33.040;2023-05-01T03:03:33;101037.03;;;15.17;100.00
49377;BME280;35253;34.688;33.040;2023-05-01T03:06:00;101044.00;;;15.19;100.00
49377;BME280;35253;34.688;33.040;2023-05-01T03:08:27;101040.66;;;15.28;100.00
49377;BME280;35253;34.688;33.040;2023-05-01T03:10:53;101046.38;;;15.24;100.00
49377;BME280;35253;34.688;33.040;2023-05-01T03:13:19;101044.47;;;15.13;100.00
49377;BME280;35253;34.688;33.040;2023-05-01T03:15:44;101048.97;;;15.13;100.00
49377;BME280;35253;34.688;33.040;2023-05-01T03:18:10;101055.09;;;15.15;100.00
49377;BME280;35253;34.688;33.040;2023-05-01T03:20:36;101060.25;;;15.18;100.00
49377;BME280;35253;34.688;33.040;2023-05-01T03:23:02;101058.09;;;15.10;100.00
49377;BME280;35253;34.688;33.040;2023-05-01T03:25:28;101060.91;;;15.09;100.00
49377;BME280;35253;34.688;33.040;2023-05-01T03:27:54;101063.69;;;15.20;100.00
49377;BME280;35253;34.688;33.040;2023-05-01T03:30:20;101069.69;;;15.23;100.00
49377;BME280;35253;34.688;33.040;2023-05-01T03:32:46;101060.88;;;15.21;100.00
49377;BME280;35253;34.688;33.040;2023-05-01T03:35:12;101063.00;;;15.29;100.00
49377;BME280;35253;34.688;33.040;2023-05-01T03:37:37;101061.75;;;15.22;100.00
49377;BME280;35253;34.688;33.040;2023-05-01T03:40:04;101066.31;;;15.32;100.00
49377;BME280;35253;34.688;33.040;2023-05-01T03:42:30;101067.19;;;15.33;100.00
49377;BME280;35253;34.688;33.040;2023-05-01T03:44:55;101065.75;;;15.40;100.00
49377;BME280;35253;34.688;33.040;2023-05-01T03:47:21;101076.00;;;15.35;100.00
49377;BME280;35253;34.688;33.040;2023-05-01T03:49:47;101083.41;;;15.44;100.00
49377;BME280;35253;34.688;33.040;2023-05-01T03:52:13;101081.69;;;15.43;100.00
49377;BME280;35253;34.688;33.040;2023-05-01T03:54:39;101090.28;;;15.48;100.00
49377;BME280;35253;34.688;33.040;2023-05-01T03:57:05;101085.75;;;15.49;100.00
49377;BME280;35253;34.688;33.040;2023-05-01T03:59:31;101094.53;;;15.63;100.00
49377;BME280;35253;34.688;33.040;2023-05-01T04:01:57;101096.78;;;15.69;100.00
49377;BME280;35253;34.688;33.040;2023-05-01T04:04:23;101106.09;;;15.76;100.00
49377;BME280;35253;34.688;33.040;2023-05-01T04:06:49;101107.38;;;15.84;100.00
49377;BME280;35253;34.688;33.040;2023-05-01T04:09:15;101117.03;;;15.86;100.00
49377;BME280;35253;34.688;33.040;2023-05-01T04:11:41;101115.06;;;16.01;100.00
49377;BME280;35253;34.688;33.040;2023-05-01T04:14:07;101119.75;;;16.10;100.00
49377;BME280;35253;34.688;33.040;2023-05-01T04:16:33;101129.59;;;16.22;100.00
49377;BME280;35253;34.688;33.040;2023-05-01T04:18:59;101123.25;;;16.34;100.00
49377;BME280;35253;34.688;33.040;2023-05-01T04:21:25;101123.81;;;16.50;100.00
49377;BME280;35253;34.688;33.040;2023-05-01T04:23:51;101123.38;;;16.67;100.00
49377;BME280;35253;34.688;33.040;2023-05-01T04:26:16;101122.09;;;16.84;100.00
49377;BME280;35253;34.688;33.040;2023-05-01T04:28:42;101131.53;;;17.01;100.00
49377;BME280;35253;34.688;33.040;2023-05-01T04:31:08;101127.50;;;17.18;100.00
49377;BME280;35253;34.688;33.040;2023-05-01T04:33:34;101130.59;;;17.35;100.00
49377;BME280;35253;34.688;33.040;2023-05-01T04:36:00;101133.75;;;17.51;100.00
49377;BME280;35253;34.688;33.040;2023-05-01T04:38:26;101134.38;;;17.66;100.00
49377;BME280;35253;34.688;33.040;2023-05-01T04:40:53;101130.81;;;17.77;100.00
49377;BME280;35253;34.688;33.040;2023-05-01T04:43:19;101138.88;;;17.88;100.00
49377;BME280;35253;34.688;33.040;2023-05-01T04:45:45;101140.94;;;18.07;100.00
49377;BME280;35253;34.688;33.040;2023-05-01T04:48:10;101135.63;;;18.16;100.00
49377;BME280;35253;34.688;33.040;2023-05-01T04:50:36;101143.34;;;18.21;100.00
49377;BME280;35253;34.688;33.040;2023-05-01T04:53:02;101138.94;;;18.40;100.00
49377;BME280;35253;34.688;33.040;2023-05-01T04:55:28;101136.91;;;18.65;100.00
49377;BME280;35253;34.688;33.040;2023-05-01T04:57:54;101148.38;;;18.78;100.00
49377;BME280;35253;34.688;33.040;2023-05-01T05:00:22;101141.81;;;19.01;100.00
49377;BME280;35253;34.688;33.040;2023-05-01T05:02:48;101138.88;;;19.04;100.00
49377;BME280;35253;34.688;33.040;2023-05-01T05:05:14;101143.19;;;19.16;100.00
49377;BME280;35253;34.688;33.040;2023-05-01T05:07:40;101144.69;;;19.30;100.00
49377;BME280;35253;34.688;33.040;2023-05-01T05:10:06;101145.66;;;19.50;100.00
49377;BME280;35253;34.688;33.040;2023-05-01T05:12:32;101151.78;;;19.52;100.00
49377;BME280;35253;34.688;33.040;2023-05-01T05:14:57;101142.66;;;19.53;100.00
49377;BME280;35253;34.688;33.040;2023-05-01T05:17:23;101141.75;;;19.73;100.00
49377;BME280;35253;34.688;33.040;2023-05-01T05:19:49;101137.78;;;19.77;100.00
49377;BME280;35253;34.688;33.040;2023-05-01T05:22:16;101148.91;;;19.93;100.00
49377;BME280;35253;34.688;33.040;2023-05-01T05:24:41;101155.28;;;19.43;100.00
49377;BME280;35253;34.688;33.040;2023-05-01T05:27:07;101157.38;;;19.60;100.00
49377;BME280;35253;34.688;33.040;2023-05-01T05:29:33;101172.66;;;19.80;100.00
49377;BME280;35253;34.688;33.040;2023-05-01T05:31:59;101167.09;;;19.72;100.00
49377;BME280;35253;34.688;33.040;2023-05-01T05:34:25;101169.56;;;19.94;100.00
49377;BME280;35253;34.688;33.040;2023-05-01T05:36:51;101172.75;;;20.18;100.00
49377;BME280;35253;34.688;33.040;2023-05-01T05:39:17;101170.06;;;20.28;100.00
49377;BME280;35253;34.688;33.040;2023-05-01T05:41:45;101178.03;;;20.20;100.00
49377;BME280;35253;34.688;33.040;2023-05-01T05:44:11;101182.50;;;20.50;100.00
49377;BME280;35253;34.688;33.040;2023-05-01T05:46:37;101182.38;;;20.61;100.00
49377;BME280;35253;34.688;33.040;2023-05-01T05:49:03;101183.59;;;20.28;100.00
49377;BME280;35253;34.688;33.040;2023-05-01T05:51:28;101186.03;;;20.21;100.00
49377;BME280;35253;34.688;33.040;2023-05-01T05:53:54;101187.47;;;20.45;100.00
49377;BME280;35253;34.688;33.040;2023-05-01T05:56:20;101195.38;;;19.98;100.00
49377;BME280;35253;34.688;33.040;2023-05-01T05:58:46;101196.16;;;19.70;100.00
49377;BME280;35253;34.688;33.040;2023-05-01T06:01:12;101204.50;;;20.07;100.00
49377;BME280;35253;34.688;33.040;2023-05-01T06:03:39;101208.59;;;20.41;100.00
49377;BME280;35253;34.688;33.040;2023-05-01T06:06:05;101196.63;;;20.44;100.00
49377;BME280;35253;34.688;33.040;2023-05-01T06:08:31;101205.03;;;19.10;100.00
49377;BME280;35253;34.688;33.040;2023-05-01T06:10:59;101214.47;;;19.15;100.00
49377;BME280;35253;34.688;33.040;2023-05-01T06:13:25;101230.66;;;19.87;100.00
49377;BME280;35253;34.688;33.040;2023-05-01T06:15:51;101223.63;;;20.24;100.00
49377;BME280;35253;34.688;33.040;2023-05-01T06:18:17;101229.34;;;20.21;100.00
49377;BME280;35253;34.688;33.040;2023-05-01T06:20:43;101231.03;;;20.13;100.00
49377;BME280;35253;34.688;33.040;2023-05-01T06:23:09;101226.69;;;19.40;100.00
49377;BME280;35253;34.688;33.040;2023-05-01T06:25:35;101227.22;;;19.85;100.00
49377;BME280;35253;34.688;33.040;2023-05-01T06:28:02;101223.59;;;20.05;100.00
49377;BME280;35253;34.688;33.040;2023-05-01T06:30:28;101227.78;;;20.29;100.00
49377;BME280;35253;34.688;33.040;2023-05-01T06:32:54;101230.41;;;19.39;100.00
49377;BME280;35253;34.688;33.040;2023-05-01T06:35:20;101231.28;;;20.00;100.00
49377;BME280;35253;34.688;33.040;2023-05-01T06:37:45;101225.66;;;20.22;100.00
49377;BME280;35253;34.688;33.040;2023-05-01T06:40:11;101230.25;;;20.41;100.00
49377;BME280;35253;34.688;33.040;2023-05-01T06:42:38;101234.41;;;20.05;100.00
49377;BME280;35253;34.688;33.040;2023-05-01T06:45:05;101230.75;;;19.04;100.00
49377;BME280;35253;34.688;33.040;2023-05-01T06:47:32;101232.84;;;19.63;100.00
49377;BME280;35253;34.688;33.040;2023-05-01T06:49:58;101236.88;;;20.08;100.00
49377;BME280;35253;34.688;33.040;2023-05-01T06:52:24;101242.34;;;19.88;100.00
49377;BME280;35253;34.688;33.040;2023-05-01T06:54:50;101244.50;;;20.34;100.00
49377;BME280;35253;34.688;33.040;2023-05-01T06:57:15;101247.16;;;19.84;100.00
49377;BME280;35253;34.688;33.040;2023-05-01T06:59:41;101249.84;;;19.74;100.00
49377;BME280;35253;34.688;33.040;2023-05-01T07:02:07;101255.25;;;20.14;100.00
49377;BME280;35253;34.688;33.040;2023-05-01T07:04:33;101259.00;;;19.83;100.00
49377;BME280;35253;34.688;33.040;2023-05-01T07:06:59;101259.63;;;19.24;100.00
49377;BME280;35253;34.688;33.040;2023-05-01T07:09:25;101261.88;;;19.61;100.00
49377;BME280;35253;34.688;33.040;2023-05-01T07:11:51;101273.22;;;19.55;100.00
49377;BME280;35253;34.688;33.040;2023-05-01T07:14:17;101277.72;;;19.96;100.00
49377;BME280;35253;34.688;33.040;2023-05-01T07:17:01;101284.19;;;20.23;100.00
49377;BME280;35253;34.688;33.040;2023-05-01T07:19:27;101281.00;;;20.39;100.00
49377;BME280;35253;34.688;33.040;2023-05-01T07:21:53;101281.28;;;20.46;100.00
49377;BME280;35253;34.688;33.040;2023-05-01T07:24:19;101278.78;;;20.23;100.00
49377;BME280;35253;34.688;33.040;2023-05-01T07:26:45;101272.19;;;20.47;100.00
49377;BME280;35253;34.688;33.040;2023-05-01T07:29:11;101277.75;;;20.55;100.00
49377;BME280;35253;34.688;33.040;2023-05-01T07:31:37;101283.31;;;20.63;100.00
49377;BME280;35253;34.688;33.040;2023-05-01T07:34:03;101277.22;;;19.81;100.00
49377;BME280;35253;34.688;33.040;2023-05-01T07:36:29;101280.84;;;20.41;100.00
49377;BME280;35253;34.688;33.040;2023-05-01T07:38:55;101275.19;;;20.63;100.00
49377;BME280;35253;34.688;33.040;2023-05-01T07:41:23;101282.44;;;19.73;100.00
49377;BME280;35253;34.688;33.040;2023-05-01T07:43:52;101293.16;;;20.14;100.00
49377;BME280;35253;34.688;33.040;2023-05-01T07:46:19;101290.16;;;20.48;100.00
49377;BME280;35253;34.688;33.040;2023-05-01T07:48:51;101291.88;;;20.18;100.00
49377;BME280;35253;34.688;33.040;2023-05-01T07:51:26;101296.66;;;19.96;100.00
49377;BME280;35253;34.688;33.040;2023-05-01T07:53:52;101300.84;;;20.19;100.00
49377;BME280;35253;34.688;33.040;2023-05-01T07:56:18;101303.28;;;19.41;100.00
49377;BME280;35253;34.688;33.040;2023-05-01T07:58:45;101305.28;;;19.59;100.00
49377;BME280;35253;34.688;33.040;2023-05-01T08:01:11;101297.75;;;19.63;100.00
49377;BME280;35253;34.688;33.040;2023-05-01T08:03:37;101297.88;;;19.82;100.00
49377;BME280;35253;34.688;33.040;2023-05-01T08:06:04;101296.63;;;19.24;100.00
49377;BME280;35253;34.688;33.040;2023-05-01T08:08:30;101305.41;;;19.16;100.00
49377;BME280;35253;34.688;33.040;2023-05-01T08:10:56;101296.97;;;19.72;100.00
49377;BME280;35253;34.688;33.040;2023-05-01T08:13:22;101297.94;;;20.01;100.00
49377;BME280;35253;34.688;33.040;2023-05-01T08:15:48;101305.81;;;19.74;100.00
49377;BME280;35253;34.688;33.040;2023-05-01T08:18:14;101297.28;;;19.78;100.00
49377;BME280;35253;34.688;33.040;2023-05-01T08:20:46;101293.06;;;20.25;100.00
49377;BME280;35253;34.688;33.040;2023-05-01T08:23:13;101300.53;;;20.43;100.00
49377;BME280;35253;34.688;33.040;2023-05-01T08:25:39;101301.16;;;20.16;100.00
49377;BME280;35253;34.688;33.040;2023-05-01T08:28:05;101285.72;;;19.35;100.00
49377;BME280;35253;34.688;33.040;2023-05-01T08:30:32;101293.28;;;19.73;100.00
49377;BME280;35253;34.688;33.040;2023-05-01T08:33:01;101290.63;;;19.83;100.00
49377;BME280;35253;34.688;33.040;2023-05-01T08:35:27;101276.22;;;19.41;100.00
49377;BME280;35253;34.688;33.040;2023-05-01T08:37:53;101279.91;;;19.81;100.00
49377;BME280;35253;34.688;33.040;2023-05-01T08:45:22;101289.63;;;20.73;100.00
49377;BME280;35253;34.688;33.040;2023-05-01T08:47:50;101280.50;;;20.93;100.00
49377;BME280;35253;34.688;33.040;2023-05-01T08:50:17;101276.44;;;20.49;100.00
49377;BME280;35253;34.688;33.040;2023-05-01T08:52:46;101273.38;;;20.92;100.00
49377;BME280;35253;34.688;33.040;2023-05-01T08:55:14;101273.22;;;20.65;100.00
49377;BME280;35253;34.688;33.040;2023-05-01T08:57:44;101276.06;;;21.02;100.00
49377;BME280;35253;34.688;33.040;2023-05-01T09:00:17;101275.97;;;21.23;100.00
49377;BME280;35253;34.688;33.040;2023-05-01T09:02:51;101270.63;;;20.63;100.00
49377;BME280;35253;34.688;33.040;2023-05-01T09:05:19;101271.66;;;21.10;100.00
49377;BME280;35253;34.688;33.040;2023-05-01T09:07:46;101273.38;;;21.31;100.00
49377;BME280;35253;34.688;33.040;2023-05-01T09:10:13;101277.50;;;21.44;100.00
49377;BME280;35253;34.688;33.040;2023-05-01T09:12:41;101277.09;;;21.30;100.00
49377;BME280;35253;34.688;33.040;2023-05-01T09:15:15;101284.31;;;21.58;100.00
49377;BME280;35253;34.688;33.040;2023-05-01T09:18:15;101287.44;;;21.63;100.00
49377;BME280;35253;34.688;33.040;2023-05-01T09:20:59;101287.59;;;21.52;100.00
49377;BME280;35253;34.688;33.040;2023-05-01T09:23:28;101279.38;;;21.81;100.00
49377;BME280;35253;34.688;33.040;2023-05-01T09:25:54;101285.94;;;21.88;100.00
49377;BME280;35253;34.688;33.040;2023-05-01T09:28:47;101284.78;;;21.34;100.00
49377;BME280;35253;34.688;33.040;2023-05-01T09:31:27;101288.66;;;21.12;100.00
49377;BME280;35253;34.688;33.040;2023-05-01T09:34:00;101290.44;;;21.60;100.00
49377;BME280;35253;34.688;33.040;2023-05-01T09:36:28;101293.22;;;21.41;100.00
49377;BME280;35253;34.688;33.040;2023-05-01T09:38:56;101292.94;;;21.25;100.00
49377;BME280;35253;34.688;33.040;2023-05-01T09:41:22;101278.25;;;21.18;100.00
49377;BME280;35253;34.688;33.040;2023-05-01T09:43:50;101276.38;;;21.84;100.00
49377;BME280;35253;34.688;33.040;2023-05-01T09:46:16;101279.50;;;20.94;100.00
49377;BME280;35253;34.688;33.040;2023-05-01T09:48:59;101283.94;;;20.95;100.00
49377;BME280;35253;34.688;33.040;2023-05-01T09:51:27;101281.06;;;21.45;100.00
49377;BME280;35253;34.688;33.040;2023-05-01T09:54:34;101272.16;;;22.36;100.00
49377;BME280;35253;34.688;33.040;2023-05-01T09:56:59;101273.56;;;22.85;100.00
49377;BME280;35253;34.688;33.040;2023-05-01T09:59:25;101279.53;;;22.71;100.00
49377;BME280;35253;34.688;33.040;2023-05-01T10:01:55;101275.88;;;22.35;100.00
49377;BME280;35253;34.688;33.040;2023-05-01T10:04:31;101273.56;;;22.40;100.00
49377;BME280;35253;34.688;33.040;2023-05-01T10:07:11;101275.34;;;23.12;100.00
49377;BME280;35253;34.688;33.040;2023-05-01T10:09:40;101288.25;;;22.65;100.00
49377;BME280;35253;34.688;33.040;2023-05-01T10:12:06;101279.88;;;23.29;100.00
49377;BME280;35253;34.688;33.040;2023-05-01T10:14:32;101280.75;;;23.47;100.00
49377;BME280;35253;34.688;33.040;2023-05-01T10:17:16;101279.03;;;22.03;100.00
49377;BME280;35253;34.688;33.040;2023-05-01T10:19:44;101278.31;;;22.11;100.00
49377;BME280;35253;34.688;33.040;2023-05-01T10:22:10;101280.97;;;23.18;100.00
49377;BME280;35253;34.688;33.040;2023-05-01T10:24:35;101282.13;;;23.33;100.00
49377;BME280;35253;34.688;33.040;2023-05-01T10:27:03;101283.28;;;22.15;100.00
49377;BME280;35253;34.688;33.040;2023-05-01T10:29:31;101282.81;;;23.35;100.00
49377;BME280;35253;34.688;33.040;2023-05-01T10:31:59;101278.59;;;23.59;100.00
49377;BME280;35253;34.688;33.040;2023-05-01T10:34:26;101283.13;;;24.10;100.00
49377;BME280;35253;34.688;33.040;2023-05-01T10:36:57;101281.78;;;22.75;100.00
49377;BME280;35253;34.688;33.040;2023-05-01T10:39:32;101278.88;;;22.59;100.00
49377;BME280;35253;34.688;33.040;2023-05-01T10:42:08;101284.25;;;23.65;100.00
49377;BME280;35253;34.688;33.040;2023-05-01T10:44:43;101288.69;;;23.23;100.00
49377;BME280;35253;34.688;33.040;2023-05-01T10:50:08;101286.81;;;23.06;100.00
49377;BME280;35253;34.688;33.040;2023-05-01T10:55:41;101289.41;;;22.44;100.00
49377;BME280;35253;34.688;33.040;2023-05-01T10:58:08;101287.06;;;23.12;100.00
49377;BME280;35253;34.688;33.040;2023-05-01T11:00:34;101280.63;;;23.57;100.00
49377;BME280;35253;34.688;33.040;2023-05-01T11:08:28;101285.16;;;23.74;100.00
49377;BME280;35253;34.688;33.040;2023-05-01T11:10:55;101277.22;;;23.80;100.00
49377;BME280;35253;34.688;33.040;2023-05-01T11:21:32;101273.19;;;23.93;100.00
49377;BME280;35253;34.688;33.040;2023-05-01T11:23:59;101289.25;;;24.04;100.00
49377;BME280;35253;34.688;33.040;2023-05-01T11:26:27;101289.44;;;23.33;100.00
49377;BME280;35253;34.688;33.040;2023-05-01T11:28:54;101286.75;;;23.85;100.00
49377;BME280;35253;34.688;33.040;2023-05-01T11:31:21;101279.63;;;23.92;100.00
49377;BME280;35253;34.688;33.040;2023-05-01T11:33:47;101270.66;;;24.33;100.00
49377;BME280;35253;34.688;33.040;2023-05-01T11:36:13;101272.94;;;23.52;100.00
49377;BME280;35253;34.688;33.040;2023-05-01T11:38:53;101268.16;;;24.14;100.00
49377;BME280;35253;34.688;33.040;2023-05-01T11:41:21;101264.59;;;24.55;100.00
49377;BME280;35253;34.688;33.040;2023-05-01T11:43:52;101268.28;;;24.30;100.00
49377;BME280;35253;34.688;33.040;2023-05-01T11:46:28;101277.13;;;24.98;100.00
49377;BME280;35253;34.688;33.040;2023-05-01T11:48:55;101263.50;;;23.64;100.00
49377;BME280;35253;34.688;33.040;2023-05-01T11:51:22;101264.94;;;24.52;100.00
49377;BME280;35253;34.688;33.040;2023-05-01T11:53:58;101263.66;;;24.89;100.00
49377;BME280;35253;34.688;33.040;2023-05-01T11:56:28;101257.78;;;24.51;100.00
49377;BME280;35253;34.688;33.040;2023-05-01T11:58:54;101264.44;;;24.15;100.00
49377;BME280;35253;34.688;33.040;2023-05-01T12:01:32;101265.63;;;24.54;100.00
49377;BME280;35253;34.688;33.040;2023-05-01T12:03:59;101260.16;;;24.62;100.00
49377;BME280;35253;34.688;33.040;2023-05-01T12:06:38;101252.78;;;23.02;100.00
49377;BME280;35253;34.688;33.040;2023-05-01T12:09:09;101257.78;;;23.75;100.00
49377;BME280;35253;34.688;33.040;2023-05-01T12:11:37;101257.50;;;22.64;100.00
49377;BME280;35253;34.688;33.040;2023-05-01T12:14:03;101247.25;;;22.40;100.00
49377;BME280;35253;34.688;33.040;2023-05-01T12:16:29;101249.66;;;23.14;100.00
49377;BME280;35253;34.688;33.040;2023-05-01T12:18:55;101253.09;;;22.18;100.00
49377;BME280;35253;34.688;33.040;2023-05-01T12:21:21;101238.88;;;21.60;100.00
49377;BME280;35253;34.688;33.040;2023-05-01T12:23:47;101244.97;;;22.36;100.00
49377;BME280;35253;34.688;33.040;2023-05-01T12:26:15;101252.34;;;22.88;100.00
49377;BME280;35253;34.688;33.040;2023-05-01T12:28:56;101246.28;;;22.95;100.00
49377;BME280;35253;34.688;33.040;2023-05-01T12:31:23;101246.63;;;23.17;100.00
49377;BME280;35253;34.688;33.040;2023-05-01T12:33:57;101242.94;;;21.83;100.00
49377;BME280;35253;34.688;33.040;2023-05-01T12:36:25;101243.88;;;21.65;100.00
49377;BME280;35253;34.688;33.040;2023-05-01T12:38:59;101241.78;;;21.86;100.00
49377;BME280;35253;34.688;33.040;2023-05-01T12:41:57;101240.56;;;21.71;100.00
49377;BME280;35253;34.688;33.040;2023-05-01T12:44:26;101235.63;;;21.47;100.00
49377;BME280;35253;34.688;33.040;2023-05-01T12:47:05;101234.84;;;21.64;100.00
49377;BME280;35253;34.688;33.040;2023-05-01T12:49:33;101240.81;;;21.77;100.00
49377;BME280;35253;34.688;33.040;2023-05-01T12:52:05;101240.91;;;21.85;100.00
49377;BME280;35253;34.688;33.040;2023-05-01T12:54:37;101241.34;;;21.81;100.00
49377;BME280;35253;34.688;33.040;2023-05-01T12:57:08;101241.31;;;21.63;100.00
49377;BME280;35253;34.688;33.040;2023-05-01T12:59:39;101246.75;;;21.90;100.00
49377;BME280;35253;34.688;33.040;2023-05-01T13:02:10;101239.56;;;22.09;100.00
49377;BME280;35253;34.688;33.040;2023-05-01T13:04:37;101241.38;;;22.18;100.00
49377;BME280;35253;34.688;33.040;2023-05-01T13:07:17;101233.50;;;21.87;100.00
49377;BME280;35253;34.688;33.040;2023-05-01T13:09:54;101233.88;;;21.65;100.00
49377;BME280;35253;34.688;33.040;2023-05-01T13:12:21;101229.50;;;22.19;100.00